Portada
METAR-TAF:

METAR-TAF

Aeroports :

Illinois Valley Regional Airport (Walter A. Duncan Field)

Peru-LaSalle, Illinois, Estats Units d'Amèrica

latitud: 41-21-07N, longitud: 089-09-11W, altitud: 199 m

Observació

L'informe es va fer fa 15 minuts, a les 18:15 UTC
Vent 9 kt del Sud-Oest
Temperatura 32°C
Humitat 38%
Pressió 1012 hPa
Visibilitat: 16.1 km
Cel clar

METAR: KVYS 251815Z AUTO 23009KT 10SM CLR 32/16 A2987 RMK AO2 T03230161

Hora: 13:30 (18:30 UTC)


TAF: manca

Observacions i pronòstics meteorològics de més de 4000 aeroports (METAR i TAF).

Les estacions disponibles són els punts grocs i vermells al mapa.

Posi el ratolí al punt desitjat per veure el nom de l'estació.

Feu clic per veure les observacions i els pronòstics meteorològics.

Per canviar el mapa: feu clic els botons verds amb una creu de color negre per apropar; al botó verd amb un guió per allunyar la imatge; o en les fletxes verdes per a mapes adjacents.


METAR-TAF: